Time;durP1;ratioP1;P1;durP2;ratioP2;P2;SDS_P1;SDS_P2;PMS_P1;PMS_P2;Temp;Humidity;BMP_temperature;BMP_pressure;BME280_temperature;BME280_humidity;BME280_pressure;Samples;Min_cycle;Max_cycle;Signal;HPM_P1;HPM_P2
2022/05/27 00:02:10;;;;;;;21.73;15.13;;;;;;;21.48;91.71;99588.03;5039962;28;20186;-88
2022/05/27 00:04:36;;;;;;;18.93;14.63;;;;;;;21.00;91.62;99492.56;5037852;28;20760;-87
2022/05/27 00:07:01;;;;;;;21.70;15.93;;;;;;;19.89;91.05;99285.47;5037465;28;20170;-86
2022/05/27 00:09:26;;;;;;;19.97;15.13;;;;;;;20.06;91.34;99324.97;5040446;28;20201;-88
2022/05/27 00:11:52;;;;;;;20.07;15.07;;;;;;;19.77;91.66;99277.72;5043712;28;20180;-88
2022/05/27 00:14:17;;;;;;;22.70;14.33;;;;;;;20.02;92.09;99328.41;5041856;28;20220;-88
2022/05/27 00:16:43;;;;;;;21.20;15.20;;;;;;;19.66;92.39;99289.66;5039391;28;20170;-89
2022/05/27 00:19:08;;;;;;;22.43;14.97;;;;;;;20.48;92.46;99428.06;5039761;28;20198;-88
2022/05/27 00:21:34;;;;;;;23.40;15.10;;;;;;;21.75;91.46;99637.06;5055342;28;20171;-88
2022/05/27 00:24:00;;;;;;;22.73;15.53;;;;;;;20.38;91.74;99389.44;5038756;28;20173;-89
2022/05/27 00:26:26;;;;;;;21.70;14.93;;;;;;;20.14;92.13;99348.13;5038390;28;20540;-87
2022/05/27 00:28:51;;;;;;;23.10;15.07;;;;;;;20.98;93.01;99505.47;5039251;28;20632;-89
2022/05/27 00:31:20;;;;;;;23.13;14.63;;;;;;;17.19;93.56;98907.47;5038138;28;20177;-88
2022/05/27 00:33:46;;;;;;;21.10;14.80;;;;;;;20.40;94.93;99452.88;5037997;28;20174;-87
2022/05/27 00:36:12;;;;;;;24.27;14.73;;;;;;;21.03;95.86;99577.53;5039831;28;20166;-87
2022/05/27 00:38:38;;;;;;;23.93;15.13;;;;;;;19.48;96.61;99334.03;5052001;28;20850;-88
2022/05/27 00:41:05;;;;;;;20.50;14.33;;;;;;;21.14;96.83;99614.53;5073829;28;20154;-87
2022/05/27 00:43:30;;;;;;;22.97;15.33;;;;;;;21.13;96.90;99620.53;5063229;28;20172;-86
2022/05/27 00:46:06;;;;;;;22.50;14.43;;;;;;;17.20;97.26;98976.53;5054574;28;20667;-88
2022/05/27 00:48:36;;;;;;;22.13;14.23;;;;;;;16.82;97.44;98890.88;5040711;28;20197;-88
2022/05/27 00:51:14;;;;;;;19.47;14.00;;;;;;;18.57;96.77;99191.34;5053716;28;20185;-87
2022/05/27 00:53:49;;;;;;;22.53;14.53;;;;;;;21.05;97.52;99615.31;5057863;28;20180;-87
2022/05/27 00:56:15;;;;;;;19.87;14.47;;;;;;;19.39;97.59;99334.84;5057134;28;20556;-86
2022/05/27 00:58:52;;;;;;;19.03;14.37;;;;;;;20.56;98.50;99533.56;5054531;28;20284;-84
2022/05/27 01:01:18;;;;;;;19.57;14.60;;;;;;;20.04;98.37;99450.06;5054077;28;20171;-83
2022/05/27 01:03:45;;;;;;;23.27;13.90;;;;;;;20.39;98.61;99533.44;5054577;28;20244;-87
2022/05/27 01:06:11;;;;;;;21.83;14.60;;;;;;;20.49;98.61;99531.81;5035970;28;20197;-88
2022/05/27 01:08:37;;;;;;;21.37;14.43;;;;;;;20.91;97.98;99598.94;5037526;28;20166;-87
2022/05/27 01:11:16;;;;;;;21.53;14.60;;;;;;;19.48;98.58;99379.41;5037161;28;20248;-88
2022/05/27 01:13:46;;;;;;;21.73;14.70;;;;;;;20.91;98.11;99619.53;5036802;28;20177;-88
2022/05/27 01:16:27;;;;;;;18.03;14.13;;;;;;;20.05;97.67;99450.91;5037733;28;20762;-87
2022/05/27 01:22:13;;;;;;;23.73;14.57;;;;;;;20.94;97.70;99613.53;5037721;28;20700;-83
2022/05/27 01:24:41;;;;;;;25.83;14.70;;;;;;;21.08;96.36;99611.94;5035684;28;20219;-83
2022/05/27 01:27:19;;;;;;;22.30;15.17;;;;;;;20.02;95.73;99428.63;5033821;28;20571;-85
2022/05/27 01:30:18;;;;;;;21.77;15.30;;;;;;;21.04;96.98;99612.75;5036988;28;20166;-84
2022/05/27 01:32:55;;;;;;;21.70;15.57;;;;;;;21.07;97.19;99612.75;4996682;28;20238;-85
2022/05/27 01:35:29;;;;;;;21.70;15.20;;;;;;;20.96;96.73;99583.50;4993033;28;20237;-85
2022/05/27 01:38:10;;;;;;;22.97;15.93;;;;;;;20.83;98.41;99607.47;4993234;28;20218;-85
2022/05/27 01:40:49;;;;;;;19.57;14.73;;;;;;;19.99;100.00;99493.72;4979055;28;20171;-84
2022/05/27 01:43:20;;;;;;;28.30;15.90;;;;;;;20.87;98.53;99604.94;4994483;28;20305;-82
2022/05/27 01:46:07;;;;;;;23.73;15.67;;;;;;;20.79;99.38;99613.44;4992029;28;20546;-84
2022/05/27 01:48:44;;;;;;;21.97;15.33;;;;;;;20.90;98.30;99612.69;4993125;28;20202;-87
2022/05/27 01:51:18;;;;;;;25.33;15.63;;;;;;;19.17;97.93;99304.69;4995718;28;20186;-86
2022/05/27 01:54:25;;;;;;;22.23;15.90;;;;;;;20.99;98.16;99609.25;4995889;28;20167;-87
2022/05/27 01:57:03;;;;;;;24.23;15.17;;;;;;;20.54;98.75;99556.72;4995258;28;20218;-87
2022/05/27 01:59:40;;;;;;;22.50;16.00;;;;;;;20.71;98.39;99573.94;4993638;28;20222;-85
2022/05/27 02:02:15;;;;;;;22.13;16.17;;;;;;;20.42;98.37;99551.47;4978203;28;20182;-86
2022/05/27 02:04:52;;;;;;;20.97;15.37;;;;;;;20.26;98.66;99516.22;4995213;28;20205;-86
2022/05/27 02:07:24;;;;;;;25.10;16.40;;;;;;;20.51;97.93;99558.38;4993951;28;20178;-86
2022/05/27 02:09:56;;;;;;;24.77;17.13;;;;;;;20.98;97.37;99621.28;4994492;28;20195;-87
2022/05/27 02:12:37;;;;;;;23.03;15.77;;;;;;;20.86;96.84;99598.06;4997393;28;20211;-87
2022/05/27 02:15:11;;;;;;;25.00;16.03;;;;;;;20.79;96.45;99573.16;5002776;28;20191;-87
2022/05/27 02:17:50;;;;;;;21.97;14.90;;;;;;;20.53;96.38;99523.25;4998755;28;20195;-86
2022/05/27 02:20:22;;;;;;;24.50;15.97;;;;;;;21.12;95.82;99624.81;4998844;28;20187;-87
2022/05/27 02:22:56;;;;;;;23.53;15.07;;;;;;;20.26;95.98;99492.22;4982508;28;20183;-86
2022/05/27 02:25:35;;;;;;;20.23;14.87;;;;;;;19.72;94.27;99374.47;4983573;28;20202;-86
2022/05/27 02:28:31;;;;;;;22.13;14.93;;;;;;;19.69;93.55;99387.28;4984730;28;20179;-87
2022/05/27 02:31:04;;;;;;;22.10;15.13;;;;;;;20.88;94.70;99629.78;5023336;28;20202;-87
2022/05/27 02:36:32;;;;;;;22.27;14.53;;;;;;;20.92;94.64;99630.69;5036659;28;20180;-87
2022/05/27 02:38:58;;;;;;;25.67;15.53;;;;;;;19.79;96.43;99486.69;5039928;28;20207;-87
2022/05/27 02:41:26;;;;;;;19.63;15.33;;;;;;;20.49;96.51;99589.22;5041330;28;20166;-88
2022/05/27 02:44:23;;;;;;;24.70;15.30;;;;;;;17.74;97.65;99164.84;5038418;28;20170;-87
2022/05/27 02:47:07;;;;;;;23.60;15.47;;;;;;;19.98;99.15;99556.25;5041587;28;20146;-87
2022/05/27 02:50:00;;;;;;;22.50;14.80;;;;;;;20.32;100.00;99625.97;5040424;28;20169;-86
2022/05/27 02:52:31;;;;;;;21.90;14.57;;;;;;;20.37;100.00;99625.16;5037104;28;20170;-88
2022/05/27 02:54:59;;;;;;;21.63;14.23;;;;;;;20.20;100.00;99628.41;5033904;28;20231;-88
2022/05/27 02:57:35;;;;;;;21.83;14.50;;;;;;;19.85;100.00;99563.84;5036176;28;20232;-88
2022/05/27 03:00:07;;;;;;;21.53;13.80;;;;;;;20.15;100.00;99622.34;5036760;28;20280;-88
2022/05/27 03:02:33;;;;;;;22.17;13.90;;;;;;;18.70;100.00;99375.25;5056178;28;20174;-86
2022/05/27 03:05:01;;;;;;;23.93;14.50;;;;;;;20.21;100.00;99628.44;5056459;28;20198;-87
2022/05/27 03:07:57;;;;;;;27.17;15.33;;;;;;;20.21;100.00;99619.84;5042314;28;20735;-88
2022/05/27 03:10:29;;;;;;;22.47;14.13;;;;;;;20.13;99.71;99599.22;5037084;28;20173;-88
2022/05/27 03:13:03;;;;;;;21.40;14.57;;;;;;;16.34;99.18;98948.19;5039471;28;20201;-87
2022/05/27 03:15:40;;;;;;;22.27;14.87;;;;;;;20.26;99.14;99621.63;5033488;28;20204;-84
2022/05/27 03:18:33;;;;;;;24.90;15.50;;;;;;;20.17;99.36;99620.66;5032397;28;20272;-84
2022/05/27 03:21:13;;;;;;;18.67;13.67;;;;;;;20.22;98.22;99624.97;5035725;28;20173;-86
2022/05/27 03:23:38;;;;;;;24.33;14.40;;;;;;;20.43;96.73;99624.34;5034221;28;20239;-86
2022/05/27 03:26:30;;;;;;;20.70;12.87;;;;;;;20.19;95.97;99582.97;5035448;28;20166;-87
2022/05/27 03:29:17;;;;;;;21.67;13.93;;;;;;;20.46;95.93;99630.34;4974701;28;20267;-83
2022/05/27 03:31:56;;;;;;;18.77;13.10;;;;;;;19.54;95.53;99479.63;4976408;28;20201;-85
2022/05/27 03:35:13;;;;;;;19.97;12.97;;;;;;;20.57;95.54;99633.88;4976164;28;20187;-85
2022/05/27 03:37:46;;;;;;;21.27;12.50;;;;;;;20.60;95.19;99631.31;4957367;28;20691;-86
2022/05/27 03:40:26;;;;;;;18.47;12.50;;;;;;;18.88;96.58;99370.28;4943249;29;20305;-84
2022/05/27 03:42:53;;;;;;;22.17;13.20;;;;;;;20.63;95.68;99633.06;4966725;29;20553;-85
2022/05/27 03:45:21;;;;;;;20.50;13.77;;;;;;;20.68;94.81;99626.25;4962372;29;20266;-86
2022/05/27 03:47:47;;;;;;;19.20;12.90;;;;;;;18.90;94.42;99319.84;4959514;29;20255;-89
2022/05/27 03:50:18;;;;;;;21.33;13.20;;;;;;;20.51;96.77;99626.13;4958699;29;20177;-89
2022/05/27 03:52:47;;;;;;;19.27;12.97;;;;;;;19.02;95.57;99350.75;4942341;29;20195;-89
2022/05/27 03:55:15;;;;;;;20.53;13.50;;;;;;;19.47;95.88;99419.66;4926974;29;20236;-88
2022/05/27 03:57:41;;;;;;;20.70;13.50;;;;;;;20.12;97.24;99540.94;4970709;28;20644;-87
2022/05/27 04:00:09;;;;;;;21.87;13.70;;;;;;;19.42;96.84;99427.31;4939970;29;20229;-89
2022/05/27 04:02:36;;;;;;;20.63;14.10;;;;;;;17.80;97.53;99159.81;4939466;29;20208;-87
2022/05/27 04:05:02;;;;;;;22.63;14.30;;;;;;;19.53;97.24;99450.50;4965733;28;20263;-87
2022/05/27 04:07:28;;;;;;;23.93;14.83;;;;;;;18.90;97.54;99340.38;4983377;28;20191;-87
2022/05/27 04:09:54;;;;;;;23.37;14.43;;;;;;;19.33;97.67;99398.09;5003198;28;20191;-87
2022/05/27 04:12:20;;;;;;;23.73;15.30;;;;;;;20.62;98.15;99645.91;5015206;28;20196;-89
2022/05/27 04:14:50;;;;;;;18.97;14.67;;;;;;;20.66;97.46;99627.94;5038292;28;20204;-89
2022/05/27 04:17:30;;;;;;;23.70;16.30;;;;;;;20.83;96.61;99639.22;5044803;28;20216;-88
2022/05/27 04:20:07;;;;;;;26.90;16.10;;;;;;;20.78;95.61;99599.72;5034318;28;20212;-86
2022/05/27 04:22:33;;;;;;;26.20;15.13;;;;;;;20.50;94.23;99518.94;5047397;28;20184;-85
2022/05/27 04:24:59;;;;;;;24.30;16.17;;;;;;;21.11;93.96;99593.91;5021417;28;20186;-86
2022/05/27 04:27:25;;;;;;;25.33;14.80;;;;;;;21.38;93.30;99635.25;5042047;28;20241;-85
2022/05/27 04:29:52;;;;;;;24.03;15.30;;;;;;;21.05;94.05;99587.00;5037407;28;20190;-86
2022/05/27 04:32:18;;;;;;;22.43;15.33;;;;;;;19.37;92.85;99267.19;5050166;28;20192;-85
2022/05/27 04:34:44;;;;;;;19.03;14.40;;;;;;;21.47;93.28;99632.72;5043582;28;20193;-85
2022/05/27 04:37:10;;;;;;;23.17;14.57;;;;;;;21.26;91.02;99515.88;5032109;28;20666;-86
2022/05/27 04:39:36;;;;;;;29.10;14.97;;;;;;;21.23;91.06;99524.44;5035891;28;20245;-85
2022/05/27 04:42:02;;;;;;;23.73;15.23;;;;;;;20.56;90.28;99354.34;5033663;28;20192;-86
2022/05/27 04:44:28;;;;;;;22.37;14.87;;;;;;;20.99;89.17;99393.03;5035328;28;20188;-86
2022/05/27 04:46:53;;;;;;;31.23;16.10;;;;;;;21.81;88.28;99504.75;5044083;28;20178;-85
2022/05/27 04:52:03;;;;;;;23.37;14.43;;;;;;;21.41;84.74;99405.13;5047711;28;20569;-85
2022/05/27 04:54:29;;;;;;;20.63;14.33;;;;;;;21.97;85.68;99513.41;5033795;28;20182;-85
2022/05/27 04:56:56;;;;;;;19.73;14.40;;;;;;;21.69;84.07;99443.78;5019824;28;20257;-86
2022/05/27 04:59:22;;;;;;;20.87;13.90;;;;;;;21.35;84.73;99436.03;5030953;28;20294;-85
2022/05/27 05:01:47;;;;;;;21.10;13.80;;;;;;;22.53;83.80;99572.66;5043117;28;20193;-86
2022/05/27 05:04:13;;;;;;;24.27;13.50;;;;;;;21.54;83.79;99448.06;5040892;28;20885;-85
2022/05/27 05:06:39;;;;;;;22.80;13.83;;;;;;;22.33;84.32;99552.09;5031037;28;20201;-86
2022/05/27 05:09:04;;;;;;;24.77;13.73;;;;;;;22.85;83.31;99625.16;5032762;28;20217;-86
2022/05/27 05:11:30;;;;;;;18.73;13.10;;;;;;;22.60;83.06;99572.69;5036757;28;21000;-86
2022/05/27 05:13:55;;;;;;;20.47;13.17;;;;;;;22.70;83.00;99589.91;5034058;28;20716;-85
2022/05/27 05:16:21;;;;;;;25.80;12.97;;;;;;;22.65;80.67;99558.06;5045655;28;20208;-85
2022/05/27 05:18:46;;;;;;;20.87;13.40;;;;;;;21.73;79.41;99346.69;5032021;28;20259;-86
2022/05/27 05:21:12;;;;;;;19.13;10.70;;;;;;;22.48;77.08;99468.59;5035719;28;20174;-84
2022/05/27 05:23:38;;;;;;;20.13;12.40;;;;;;;22.61;76.60;99491.78;5056291;28;20177;-85
2022/05/27 05:26:04;;;;;;;18.07;11.80;;;;;;;23.02;75.52;99550.22;5054615;28;20213;-85
2022/05/27 05:28:29;;;;;;;16.87;11.83;;;;;;;22.79;73.03;99453.06;5031847;28;20189;-85
2022/05/27 05:30:55;;;;;;;21.07;12.10;;;;;;;23.22;73.33;99543.22;5029206;28;20574;-85
2022/05/27 05:33:20;;;;;;;23.40;12.33;;;;;;;23.11;72.28;99495.91;5022312;28;20178;-84
2022/05/27 05:35:46;;;;;;;18.77;11.80;;;;;;;23.49;72.78;99561.19;5026160;28;20181;-87
2022/05/27 05:38:12;;;;;;;16.83;12.13;;;;;;;24.03;69.48;99617.72;5031981;28;20198;-86
2022/05/27 05:40:38;;;;;;;22.37;12.33;;;;;;;23.17;67.60;99389.97;5020973;28;20268;-86
2022/05/27 05:43:04;;;;;;;18.87;11.83;;;;;;;23.06;66.79;99394.38;5030217;28;20197;-87
2022/05/27 05:45:29;;;;;;;18.67;11.47;;;;;;;22.68;64.76;99307.69;5027069;28;20196;-88
2022/05/27 05:47:55;;;;;;;20.90;11.90;;;;;;;23.91;66.00;99524.72;5025937;28;20201;-88
2022/05/27 05:50:20;;;;;;;24.63;12.47;;;;;;;24.00;66.27;99578.13;5038834;28;20666;-88
2022/05/27 05:52:46;;;;;;;18.30;11.43;;;;;;;23.39;65.54;99458.75;5031532;28;20205;-87
2022/05/27 05:55:13;;;;;;;19.50;12.60;;;;;;;23.66;65.98;99518.00;5030664;28;20229;-88
2022/05/27 05:57:41;;;;;;;15.97;12.23;;;;;;;24.12;65.92;99582.38;5031757;28;20205;-89
2022/05/27 06:00:09;;;;;;;18.33;11.80;;;;;;;23.17;65.71;99434.75;5044215;28;20212;-89
2022/05/27 06:02:34;;;;;;;20.50;12.23;;;;;;;22.74;64.20;99281.00;5036378;28;20637;-89
2022/05/27 06:05:03;;;;;;;20.57;11.60;;;;;;;23.72;61.10;99370.59;5035100;28;20200;-89
2022/05/27 06:07:31;;;;;;;14.93;11.47;;;;;;;24.52;59.65;99500.88;5032698;28;20185;-88
2022/05/27 06:09:57;;;;;;;15.13;10.73;;;;;;;25.31;58.15;99608.78;5040857;28;20187;-87
2022/05/27 06:12:23;;;;;;;17.20;11.30;;;;;;;23.98;59.28;99412.56;5040319;28;20264;-87
2022/05/27 06:14:50;;;;;;;17.67;11.13;;;;;;;23.93;58.20;99380.72;5025670;28;20192;-87
2022/05/27 06:17:16;;;;;;;14.93;10.57;;;;;;;22.43;58.45;99151.28;5022365;28;20809;-87
2022/05/27 06:19:42;;;;;;;17.00;11.07;;;;;;;24.01;58.40;99425.47;5028031;28;20308;-87
2022/05/27 06:22:07;;;;;;;17.27;10.63;;;;;;;25.44;55.92;99612.94;5026860;28;20221;-87
2022/05/27 06:24:33;;;;;;;14.97;10.10;;;;;;;24.76;55.45;99469.53;5019197;28;20190;-88
2022/05/27 06:26:59;;;;;;;16.83;10.47;;;;;;;24.70;55.61;99474.78;5033535;28;20192;-87
2022/05/27 06:34:55;;;;;;;16.23;10.23;;;;;;;25.91;54.82;99604.53;5032180;28;20217;-88
2022/05/27 06:37:24;;;;;;;15.37;10.33;;;;;;;24.40;55.16;99371.59;5023731;28;20222;-87
2022/05/27 06:39:50;;;;;;;19.07;13.17;;;;;;;24.13;55.04;99283.97;5023023;28;20198;-86
2022/05/27 06:42:16;;;;;;;22.00;13.43;;;;;;;25.69;53.47;99536.56;5027884;28;20189;-87
2022/05/27 06:44:41;;;;;;;16.83;9.10;;;;;;;25.86;53.21;99598.56;5033339;28;20196;-87
2022/05/27 06:47:09;;;;;;;14.67;9.60;;;;;;;25.74;53.35;99595.25;5030161;28;20178;-87
2022/05/27 06:49:35;;;;;;;15.03;9.67;;;;;;;25.21;53.25;99440.47;5023005;28;20526;-87
2022/05/27 06:52:01;;;;;;;13.48;9.35;;;;;;;26.56;51.36;99588.78;5030609;28;20232;-87
2022/05/27 06:54:27;;;;;;;15.10;9.75;;;;;;;25.85;51.13;99413.50;5022092;28;20245;-87
2022/05/27 06:56:52;;;;;;;13.30;8.80;;;;;;;25.47;51.39;99397.75;5015879;28;20838;-89
2022/05/27 06:59:19;;;;;;;12.40;9.18;;;;;;;25.00;51.74;99365.63;5021323;28;20226;-88
2022/05/27 07:01:45;;;;;;;13.45;8.75;;;;;;;25.03;51.92;99329.31;5033416;28;20181;-87
2022/05/27 07:04:11;;;;;;;11.52;8.60;;;;;;;26.77;51.33;99582.34;5023834;28;20268;-88
2022/05/27 07:06:43;;;;;;;13.98;8.52;;;;;;;26.55;51.94;99581.88;5033705;28;20192;-87
2022/05/27 07:09:15;;;;;;;13.32;8.50;;;;;;;26.80;51.34;99579.72;5032983;28;20191;-87
2022/05/27 07:11:43;;;;;;;14.20;8.90;;;;;;;26.18;50.06;99402.53;5024636;28;20199;-87
2022/05/27 07:14:08;;;;;;;11.20;7.60;;;;;;;26.49;48.65;99477.25;5032576;28;20184;-87
2022/05/27 07:16:38;;;;;;;12.50;8.13;;;;;;;27.24;48.48;99586.63;5028181;28;20185;-89
2022/05/27 07:19:04;;;;;;;12.63;8.43;;;;;;;26.32;47.84;99384.97;5021182;28;20268;-89
2022/05/27 07:21:29;;;;;;;13.50;7.65;;;;;;;25.57;47.57;99256.72;5023432;28;20191;-87
2022/05/27 07:23:55;;;;;;;10.75;7.30;;;;;;;26.33;47.03;99394.47;5032217;28;20819;-88
2022/05/27 07:26:22;;;;;;;12.73;8.40;;;;;;;27.00;49.44;99536.00;5031753;28;20173;-86
2022/05/27 07:28:48;;;;;;;11.52;7.90;;;;;;;27.26;49.32;99577.06;5031372;28;20325;-86
2022/05/27 07:31:14;;;;;;;12.02;8.48;;;;;;;27.53;48.38;99572.16;5029676;28;20191;-87
2022/05/27 07:33:40;;;;;;;10.05;7.15;;;;;;;26.84;47.58;99472.22;5031657;28;20263;-87
2022/05/27 07:36:06;;;;;;;13.75;7.80;;;;;;;27.52;47.18;99530.56;5031857;28;20694;-85
2022/05/27 07:38:31;;;;;;;12.00;7.53;;;;;;;27.44;46.17;99437.09;5032775;28;20218;-86
2022/05/27 07:40:57;;;;;;;12.90;6.35;;;;;;;27.79;44.87;99522.13;5031648;28;20638;-87
2022/05/27 07:43:22;;;;;;;11.65;6.35;;;;;;;26.62;44.44;99300.34;5033026;28;20185;-86
2022/05/27 07:45:49;;;;;;;9.02;6.30;;;;;;;28.31;44.61;99563.38;5047014;28;20235;-84
2022/05/27 07:48:14;;;;;;;9.48;6.30;;;;;;;29.05;42.84;99558.78;5049786;28;20180;-86
2022/05/27 07:50:40;;;;;;;10.68;6.30;;;;;;;28.85;41.86;99468.97;5047028;28;20239;-86
2022/05/27 07:53:06;;;;;;;8.32;5.72;;;;;;;28.82;40.28;99435.19;5033571;28;20162;-85
2022/05/27 07:55:31;;;;;;;5.43;4.35;;;;;;;28.15;38.49;99481.34;5023547;28;20227;-87
2022/05/27 07:57:57;;;;;;;10.27;4.60;;;;;;;29.30;37.65;99537.22;5033209;28;20308;-87
2022/05/27 08:00:27;;;;;;;8.57;4.80;;;;;;;27.43;37.76;99255.97;5025032;28;20256;-86
2022/05/27 08:02:52;;;;;;;7.07;4.38;;;;;;;27.68;38.26;99362.81;5032248;28;20231;-87
2022/05/27 08:05:21;;;;;;;8.55;4.38;;;;;;;28.89;37.27;99385.44;5032629;28;20165;-88
2022/05/27 08:07:47;;;;;;;7.00;4.22;;;;;;;28.77;37.21;99397.97;5032459;28;20202;-86
2022/05/27 08:10:16;;;;;;;9.57;4.80;;;;;;;29.31;37.52;99516.28;5022074;28;20629;-87
2022/05/27 08:12:41;;;;;;;11.80;4.88;;;;;;;27.74;37.67;99343.59;5022600;28;20179;-86
2022/05/27 08:15:08;;;;;;;5.40;4.32;;;;;;;27.45;36.89;99196.94;5024379;28;20176;-87
2022/05/27 08:17:38;;;;;;;8.85;4.50;;;;;;;27.49;37.05;99143.09;5022871;28;20159;-87
2022/05/27 08:20:05;;;;;;;9.70;4.93;;;;;;;28.73;38.12;99333.84;5032358;28;20189;-86
2022/05/27 08:22:30;;;;;;;7.03;5.07;;;;;;;29.51;37.79;99417.38;5033487;28;20207;-87
2022/05/27 08:24:56;;;;;;;7.70;4.57;;;;;;;28.62;36.08;99321.97;5028585;28;20753;-86
2022/05/27 08:27:21;;;;;;;8.68;4.47;;;;;;;29.04;34.40;99248.53;5030953;28;20181;-86
2022/05/27 08:29:47;;;;;;;5.95;4.15;;;;;;;29.30;34.14;99183.34;5026957;28;20707;-85
2022/05/27 08:32:12;;;;;;;6.72;4.57;;;;;;;28.96;34.40;99141.03;5023565;28;20164;-87
2022/05/27 08:40:44;;;;;;;6.82;4.03;;;;;;;31.28;31.61;99543.56;5035553;28;20200;-86
2022/05/27 08:43:40;;;;;;;9.23;3.90;;;;;;;32.06;30.81;99540.44;4975993;28;20823;-85
2022/05/27 08:46:21;;;;;;;6.90;4.28;;;;;;;32.03;31.08;99543.19;4970462;28;20179;-87
2022/05/27 08:48:51;;;;;;;8.90;3.80;;;;;;;31.25;30.72;99442.47;4970372;28;20191;-86
2022/05/27 08:51:22;;;;;;;5.60;3.60;;;;;;;31.71;31.20;99540.13;4971615;28;20600;-87
2022/05/27 08:54:07;;;;;;;9.30;4.22;;;;;;;31.83;31.44;99537.91;4947643;28;20650;-86
2022/05/27 08:59:34;;;;;;;12.18;6.68;;;;;;;31.65;32.29;99536.00;4971251;28;20245;-86
2022/05/27 09:02:08;;;;;;;14.75;8.55;;;;;;;31.87;32.13;99531.59;4972317;28;20214;-86
2022/05/27 09:04:40;;;;;;;7.65;4.07;;;;;;;31.39;32.16;99466.34;4955894;28;20199;-86
2022/05/27 09:07:38;;;;;;;7.03;3.80;;;;;;;31.42;33.21;99533.41;4972333;28;20191;-86
2022/05/27 09:10:08;;;;;;;7.47;4.07;;;;;;;31.04;34.34;99524.38;4971866;28;20281;-85
2022/05/27 09:13:05;;;;;;;8.68;3.92;;;;;;;31.48;30.65;99523.56;4972451;28;20180;-85
2022/05/27 09:15:38;;;;;;;6.28;3.63;;;;;;;30.58;31.73;99422.38;4972035;28;20362;-85
2022/05/27 09:18:18;;;;;;;8.65;4.00;;;;;;;31.67;31.96;99510.63;4972335;28;20183;-86
2022/05/27 09:20:53;;;;;;;6.32;3.65;;;;;;;31.66;31.63;99513.28;5015224;28;20195;-86
2022/05/27 09:23:33;;;;;;;7.10;4.07;;;;;;;31.79;31.03;99504.88;5028935;28;20215;-87
2022/05/27 09:26:27;;;;;;;5.95;3.72;;;;;;;31.45;31.85;99447.75;5029992;28;20239;-86
2022/05/27 09:29:04;;;;;;;9.55;3.97;;;;;;;32.33;31.27;99501.72;5031725;28;20181;-86
2022/05/27 09:31:47;;;;;;;5.55;3.72;;;;;;;31.80;30.77;99454.22;5032479;28;20243;-87
2022/05/27 09:34:13;;;;;;;6.70;3.83;;;;;;;32.07;30.99;99487.13;5034243;28;20208;-88
2022/05/27 09:36:44;;;;;;;7.80;4.22;;;;;;;32.03;31.17;99485.53;5023967;28;20634;-86
2022/05/27 09:39:13;;;;;;;6.50;3.97;;;;;;;30.15;31.39;99232.41;5023232;28;20292;-86
2022/05/27 09:42:05;;;;;;;8.50;3.95;;;;;;;32.57;31.04;99474.50;5029674;28;20172;-87
2022/05/27 09:44:35;;;;;;;6.93;4.03;;;;;;;30.96;31.50;99263.13;5023691;28;20173;-86
2022/05/27 09:47:03;;;;;;;6.80;4.10;;;;;;;31.13;31.82;99380.16;5022606;28;20173;-86
2022/05/27 09:49:29;;;;;;;7.22;4.20;;;;;;;31.89;31.47;99395.34;5033672;28;20193;-87
2022/05/27 09:51:54;;;;;;;6.38;4.22;;;;;;;31.65;30.60;99329.16;5032260;28;20178;-86
2022/05/27 09:54:42;;;;;;;6.95;4.07;;;;;;;31.97;30.89;99391.50;5032167;28;20219;-87
2022/05/27 09:57:11;;;;;;;7.18;4.38;;;;;;;32.62;30.82;99475.13;5020535;28;20713;-87
2022/05/27 09:59:40;;;;;;;8.80;4.40;;;;;;;32.70;31.26;99419.69;5032386;28;20190;-86
2022/05/27 10:02:21;;;;;;;9.27;4.30;;;;;;;32.34;30.44;99439.66;5031428;28;20173;-86
2022/05/27 10:05:00;;;;;;;6.00;4.20;;;;;;;32.27;30.94;99459.22;5031266;28;20180;-87
2022/05/27 10:07:35;;;;;;;6.60;4.00;;;;;;;32.23;30.76;99418.31;5044331;28;20174;-87
2022/05/27 10:10:26;;;;;;;5.97;4.03;;;;;;;32.58;30.89;99455.19;5054701;28;20213;-86
2022/05/27 10:12:52;;;;;;;6.53;4.03;;;;;;;32.10;30.76;99324.56;5032639;28;20194;-85
2022/05/27 10:15:34;;;;;;;9.10;4.30;;;;;;;33.13;30.31;99434.31;5029448;28;20177;-87
2022/05/27 10:18:18;;;;;;;6.70;4.20;;;;;;;33.27;30.76;99436.31;5029327;28;20232;-88
2022/05/27 10:20:50;;;;;;;8.05;4.03;;;;;;;32.87;30.60;99401.41;5020366;28;20174;-88
2022/05/27 10:23:24;;;;;;;9.48;4.78;;;;;;;32.32;31.45;99431.03;5031232;28;20166;-86
2022/05/27 10:25:50;;;;;;;9.10;4.32;;;;;;;32.26;31.76;99394.59;5031001;28;20240;-87
2022/05/27 10:28:29;;;;;;;10.35;4.05;;;;;;;32.11;31.33;99359.47;5032792;28;20190;-85
2022/05/27 10:31:02;;;;;;;8.35;4.10;;;;;;;32.78;30.61;99422.81;5034280;28;20254;-86
2022/05/27 10:33:42;;;;;;;6.07;4.32;;;;;;;31.87;30.69;99205.97;5031457;28;20178;-86
2022/05/27 10:36:53;;;;;;;8.90;4.32;;;;;;;32.47;31.15;99409.41;5034664;28;20277;-86
2022/05/27 10:39:28;;;;;;;7.68;4.13;;;;;;;32.58;30.69;99401.91;4963125;28;20204;-87
2022/05/27 10:42:14;;;;;;;8.32;4.20;;;;;;;32.41;30.81;99401.81;4965399;28;20176;-87
2022/05/27 10:44:48;;;;;;;9.85;4.15;;;;;;;32.99;30.53;99394.75;4946463;28;20199;-86
2022/05/27 10:47:24;;;;;;;9.50;4.32;;;;;;;31.41;29.56;99179.22;4963627;28;20621;-86
2022/05/27 10:50:01;;;;;;;7.43;4.03;;;;;;;32.16;29.59;99319.97;4965436;28;20192;-86
2022/05/27 10:53:02;;;;;;;10.23;4.13;;;;;;;32.90;29.70;99385.53;4967694;28;20186;-87
2022/05/27 10:55:55;;;;;;;8.25;4.70;;;;;;;32.67;30.35;99381.38;4953532;28;20198;-86
2022/05/27 11:04:28;;;;;;;9.63;3.95;;;;;;;31.40;29.55;99093.78;4967190;28;20653;-88
2022/05/27 11:07:16;;;;;;;7.88;3.67;;;;;;;32.13;30.54;99365.50;4967935;28;20572;-87
2022/05/27 11:10:15;;;;;;;9.45;4.07;;;;;;;32.62;30.22;99367.63;4948394;28;20272;-88
2022/05/27 11:15:59;;;;;;;8.65;4.13;;;;;;;32.80;29.29;99278.50;4951372;28;20202;-87
2022/05/27 11:18:51;;;;;;;7.25;3.50;;;;;;;32.72;28.53;99165.25;4957588;28;20290;-87
2022/05/27 11:21:47;;;;;;;8.02;3.67;;;;;;;34.23;27.62;99367.47;4960043;28;20658;-87
2022/05/27 11:24:45;;;;;;;8.75;3.65;;;;;;;34.46;27.41;99361.00;4971501;28;20204;-90
2022/05/27 11:27:26;;;;;;;8.05;3.80;;;;;;;33.89;28.66;99360.50;4957916;28;20192;-88
2022/05/27 11:30:03;;;;;;;7.53;4.00;;;;;;;34.47;28.03;99358.28;4973107;28;20186;-86
2022/05/27 11:32:40;;;;;;;8.80;3.63;;;;;;;35.38;27.59;99358.44;4963997;28;20206;-87
2022/05/27 11:35:29;;;;;;;7.88;3.85;;;;;;;35.02;27.01;99268.41;4963522;28;20194;-87
2022/05/27 11:38:13;;;;;;;8.07;3.90;;;;;;;36.80;26.62;99352.34;4963656;28;20193;-87
2022/05/27 11:41:09;;;;;;;6.95;3.65;;;;;;;37.99;24.65;99364.63;4964392;28;20188;-87
2022/05/27 11:43:58;;;;;;;7.32;3.78;;;;;;;36.92;24.28;99023.38;4966329;28;20586;-87
2022/05/27 11:46:26;;;;;;;4.78;3.40;;;;;;;39.12;23.37;99357.44;4961631;28;20198;-86
2022/05/27 11:49:10;;;;;;;8.80;3.70;;;;;;;38.84;23.47;99332.94;4966971;28;20187;-88
2022/05/27 11:52:18;;;;;;;5.38;3.70;;;;;;;39.01;23.29;99257.53;4981573;28;20188;-86
2022/05/27 11:55:05;;;;;;;7.97;4.07;;;;;;;40.12;22.75;99344.47;5038324;28;20181;-86
2022/05/27 11:57:40;;;;;;;10.15;4.15;;;;;;;38.99;23.82;99195.91;5033276;28;20283;-87
2022/05/27 12:00:19;;;;;;;8.52;3.92;;;;;;;38.32;23.31;99129.47;5031457;28;20215;-86
2022/05/27 12:03:10;;;;;;;5.93;3.75;;;;;;;39.05;23.44;99282.84;5032801;28;20264;-87
2022/05/27 12:05:47;;;;;;;6.85;3.97;;;;;;;38.75;23.71;99208.31;5032622;28;20193;-87
2022/05/27 12:08:28;;;;;;;9.52;3.92;;;;;;;38.74;23.94;99321.31;5024109;28;20181;-86
2022/05/27 12:10:57;;;;;;;7.20;4.10;;;;;;;37.93;24.10;99200.28;5033545;28;20177;-87
2022/05/27 12:13:34;;;;;;;12.65;4.10;;;;;;;38.77;23.95;99275.28;5034767;28;20243;-85
2022/05/27 12:16:08;;;;;;;9.18;4.20;;;;;;;37.93;24.04;99123.59;5034589;28;20661;-85
2022/05/27 12:18:47;;;;;;;15.35;7.88;;;;;;;38.81;24.05;99309.38;5014991;28;20225;-83
2022/05/27 12:21:18;;;;;;;11.05;4.80;;;;;;;37.70;25.12;99263.50;5032289;28;20557;-85
2022/05/27 12:23:50;;;;;;;12.10;5.18;;;;;;;36.97;25.81;99171.75;5030994;28;20182;-83